Time;durP1;ratioP1;P1;durP2;ratioP2;P2;SDS_P1;SDS_P2;PMS_P1;PMS_P2;Temp;Humidity;BMP_temperature;BMP_pressure;BME280_temperature;BME280_humidity;BME280_pressure;Samples;Min_cycle;Max_cycle;Signal;HPM_P1;HPM_P2
2022/05/10 00:01:31;;;;;;;35.60;29.00;;;;;;;6.91;83.24;94463.94;5055177;28;20193;-67
2022/05/10 00:04:15;;;;;;;36.50;28.73;;;;;;;6.81;83.08;94463.00;5050558;28;20235;-67
2022/05/10 00:07:00;;;;;;;35.83;28.67;;;;;;;6.71;83.48;94462.06;5035270;28;20596;-67
2022/05/10 00:09:45;;;;;;;36.40;30.27;;;;;;;6.73;83.61;94458.72;5061004;28;20236;-67
2022/05/10 00:12:29;;;;;;;36.33;29.93;;;;;;;6.64;83.58;94453.69;5039026;28;20234;-67
2022/05/10 00:15:14;;;;;;;37.30;28.93;;;;;;;6.55;83.73;94449.38;5041313;28;20216;-67
2022/05/10 00:17:58;;;;;;;37.73;29.80;;;;;;;6.49;83.66;94451.59;5056050;28;20173;-67
2022/05/10 00:20:44;;;;;;;41.27;30.07;;;;;;;6.48;83.87;94450.13;5054448;28;20185;-67
2022/05/10 00:23:28;;;;;;;35.20;28.13;;;;;;;6.44;84.06;94446.94;5053749;28;20634;-67
2022/05/10 00:26:12;;;;;;;40.60;29.87;;;;;;;6.42;84.09;94457.88;5055190;28;20209;-66
2022/05/10 00:28:57;;;;;;;45.73;32.50;;;;;;;6.38;84.38;94457.50;5054728;28;20213;-67
2022/05/10 00:31:42;;;;;;;40.50;31.87;;;;;;;6.31;84.46;94452.66;5052496;28;20204;-67
2022/05/10 00:34:29;;;;;;;50.10;34.87;;;;;;;6.38;85.17;94458.25;5074278;28;20212;-67
2022/05/10 00:37:18;;;;;;;49.33;34.53;;;;;;;6.32;84.65;94454.16;5053972;28;20715;-67
2022/05/10 00:40:03;;;;;;;50.77;33.07;;;;;;;6.26;84.74;94451.53;5055025;28;20216;-67
2022/05/10 00:42:53;;;;;;;49.67;36.53;;;;;;;6.14;84.46;94457.97;5055352;28;20228;-68
2022/05/10 00:46:00;;;;;;;47.20;33.87;;;;;;;6.08;84.47;94450.53;5035314;28;20213;-67
2022/05/10 00:48:55;;;;;;;47.67;34.90;;;;;;;5.99;84.93;94442.69;5039416;28;20227;-67
2022/05/10 00:51:45;;;;;;;51.97;35.37;;;;;;;5.98;85.17;94437.72;5066480;28;20263;-67
2022/05/10 00:54:36;;;;;;;60.77;37.60;;;;;;;5.90;84.81;94432.09;5054656;28;20225;-66
2022/05/10 00:57:44;;;;;;;60.67;38.40;;;;;;;5.89;85.05;94435.44;5040919;28;20252;-66
2022/05/10 01:00:31;;;;;;;55.83;37.93;;;;;;;5.89;85.35;94425.06;5051548;28;20280;-66
2022/05/10 01:03:58;;;;;;;64.57;40.70;;;;;;;5.88;85.62;94423.56;5035247;28;20319;-66
2022/05/10 01:06:50;;;;;;;63.70;39.77;;;;;;;5.90;85.83;94420.97;5058273;28;20209;-66
2022/05/10 01:09:57;;;;;;;67.27;40.67;;;;;;;5.88;85.80;94434.69;5038030;28;20201;-66
2022/05/10 01:12:56;;;;;;;58.57;37.43;;;;;;;5.87;85.82;94427.63;5069091;28;20684;-66
2022/05/10 01:15:56;;;;;;;66.10;37.70;;;;;;;5.91;85.41;94422.47;5039975;28;20220;-66
2022/05/10 01:18:41;;;;;;;52.17;36.17;;;;;;;5.90;85.68;94425.81;5068069;28;20281;-65
2022/05/10 01:22:07;;;;;;;54.13;35.17;;;;;;;5.82;85.57;94413.84;5056767;28;20737;-66
2022/05/10 01:25:03;;;;;;;52.30;34.57;;;;;;;5.70;85.60;94413.44;5037650;28;20290;-66
2022/05/10 01:28:16;;;;;;;49.43;31.43;;;;;;;5.67;85.68;94420.84;5071532;28;20189;-66
2022/05/10 01:31:17;;;;;;;49.47;32.03;;;;;;;5.72;86.52;94424.75;5062350;28;20243;-67
2022/05/10 01:34:11;;;;;;;48.03;31.10;;;;;;;5.69;86.93;94423.81;5040690;28;20204;-67
2022/05/10 01:37:00;;;;;;;43.50;29.03;;;;;;;5.48;85.74;94422.41;5068835;28;20197;-66
2022/05/10 01:40:04;;;;;;;41.53;28.87;;;;;;;5.39;86.04;94420.09;5043072;28;20207;-67
2022/05/10 01:42:54;;;;;;;48.47;30.70;;;;;;;5.25;85.80;94425.75;5042205;28;20204;-67
2022/05/10 01:46:05;;;;;;;46.17;30.07;;;;;;;5.19;85.94;94422.38;5055508;28;20193;-67
2022/05/10 01:48:55;;;;;;;52.27;32.90;;;;;;;5.19;86.19;94427.94;5045563;28;20216;-67
2022/05/10 01:52:07;;;;;;;57.17;35.00;;;;;;;5.28;86.83;94424.69;5067510;28;20700;-66
2022/05/10 01:54:52;;;;;;;57.30;34.23;;;;;;;5.20;86.28;94412.78;5027385;28;20357;-67
2022/05/10 01:57:38;;;;;;;60.67;35.30;;;;;;;5.15;86.05;94426.81;5052694;28;20328;-67
2022/05/10 02:00:26;;;;;;;49.47;33.10;;;;;;;5.16;86.02;94414.41;5059195;28;20213;-68
2022/05/10 02:03:19;;;;;;;56.27;33.57;;;;;;;5.08;86.16;94417.13;5038633;28;20243;-68
2022/05/10 02:06:29;;;;;;;54.77;32.23;;;;;;;5.26;87.77;94421.69;5050693;28;20278;-68
2022/05/10 02:09:43;;;;;;;44.43;29.40;;;;;;;5.20;86.68;94429.44;5038033;28;20228;-68
2022/05/10 02:12:34;;;;;;;42.93;29.07;;;;;;;5.35;86.99;94430.84;5057326;28;20653;-68
2022/05/10 02:15:29;;;;;;;44.47;27.87;;;;;;;5.23;86.83;94438.72;5041310;28;20240;-67
2022/05/10 02:18:22;;;;;;;38.63;27.33;;;;;;;5.20;86.86;94437.78;5057816;28;20204;-67
2022/05/10 02:21:18;;;;;;;44.57;28.73;;;;;;;5.13;86.85;94435.69;5050201;28;20188;-67
2022/05/10 02:24:09;;;;;;;49.27;29.47;;;;;;;5.11;87.01;94431.97;5037300;28;20201;-67
2022/05/10 02:27:01;;;;;;;46.87;30.50;;;;;;;5.08;86.77;94433.78;5060846;28;21446;-67
2022/05/10 02:29:50;;;;;;;53.63;30.27;;;;;;;4.99;86.91;94430.75;5055866;28;20267;-68
2022/05/10 02:35:55;;;;;;;46.50;26.83;;;;;;;4.84;87.01;94432.13;5053352;28;20189;-67
2022/05/10 02:38:41;;;;;;;46.70;25.67;;;;;;;4.86;87.09;94437.13;5056090;28;20211;-67
2022/05/10 02:41:25;;;;;;;48.67;26.67;;;;;;;4.80;86.68;94430.97;5042410;28;20196;-67
2022/05/10 02:44:09;;;;;;;45.73;25.43;;;;;;;4.76;86.97;94430.56;5041316;28;20272;-67
2022/05/10 02:46:55;;;;;;;43.43;27.00;;;;;;;4.73;87.06;94431.66;5054348;28;20741;-67
2022/05/10 02:49:40;;;;;;;43.43;25.43;;;;;;;4.77;87.46;94430.00;5040283;28;20594;-67
2022/05/10 02:52:25;;;;;;;42.27;25.77;;;;;;;4.72;87.19;94425.34;5047329;28;20672;-67
2022/05/10 02:55:17;;;;;;;37.47;22.07;;;;;;;4.67;87.01;94439.38;5065670;28;20625;-67
2022/05/10 02:58:09;;;;;;;36.33;22.97;;;;;;;4.60;86.87;94437.25;5033361;28;20189;-67
2022/05/10 03:01:00;;;;;;;41.47;22.53;;;;;;;4.59;86.86;94435.75;5070470;28;20181;-67
2022/05/10 03:03:45;;;;;;;37.37;21.43;;;;;;;4.52;87.00;94433.66;5054522;28;20193;-67
2022/05/10 03:06:30;;;;;;;40.60;21.33;;;;;;;4.53;86.97;94437.94;5045921;28;20254;-67
2022/05/10 03:09:15;;;;;;;35.60;21.27;;;;;;;4.49;86.92;94432.72;5042242;28;20624;-67
2022/05/10 03:12:02;;;;;;;39.93;21.70;;;;;;;4.45;87.04;94432.28;5055072;28;20188;-67
2022/05/10 03:14:46;;;;;;;36.33;20.17;;;;;;;4.53;87.15;94429.59;5054779;28;20225;-67
2022/05/10 03:17:31;;;;;;;37.80;21.67;;;;;;;4.45;87.24;94435.81;5042790;28;20201;-67
2022/05/10 03:20:15;;;;;;;43.90;23.33;;;;;;;4.40;87.15;94433.16;5041214;28;20239;-67
2022/05/10 03:23:00;;;;;;;41.50;21.77;;;;;;;4.37;87.31;94437.78;5040510;28;20579;-67
2022/05/10 03:25:45;;;;;;;49.67;24.73;;;;;;;4.37;87.42;94434.25;5083599;28;20322;-68
2022/05/10 03:28:29;;;;;;;43.20;22.80;;;;;;;4.51;88.40;94443.25;5041207;28;20192;-68
2022/05/10 03:31:16;;;;;;;41.10;23.43;;;;;;;4.33;87.43;94440.13;5053490;28;20195;-67
2022/05/10 03:37:03;;;;;;;48.97;23.53;;;;;;;4.28;87.56;94440.25;5054937;28;20196;-67
2022/05/10 03:39:47;;;;;;;46.97;23.97;;;;;;;4.31;87.49;94442.72;5042699;28;20697;-67
2022/05/10 03:42:32;;;;;;;47.43;25.17;;;;;;;4.25;87.48;94444.88;5052553;28;20646;-68
2022/05/10 03:45:18;;;;;;;49.47;22.73;;;;;;;4.24;87.59;94442.63;5048978;28;20193;-68
2022/05/10 03:48:03;;;;;;;46.73;22.77;;;;;;;4.24;87.63;94440.59;5056034;28;20259;-68
2022/05/10 03:50:49;;;;;;;46.67;23.33;;;;;;;4.33;88.15;94448.44;5040173;28;20198;-68
2022/05/10 03:53:33;;;;;;;65.73;25.93;;;;;;;4.45;87.80;94435.81;5045220;28;20279;-68
2022/05/10 03:56:17;;;;;;;59.33;26.17;;;;;;;4.48;87.76;94440.31;5046813;28;20196;-67
2022/05/10 03:59:03;;;;;;;49.67;23.90;;;;;;;4.54;88.00;94431.84;5070409;28;20201;-67
2022/05/10 04:01:48;;;;;;;46.77;22.37;;;;;;;4.55;87.88;94438.13;5039899;28;20589;-68
2022/05/10 04:04:36;;;;;;;53.90;24.40;;;;;;;4.54;87.98;94428.31;5041841;28;20205;-67
2022/05/10 04:07:20;;;;;;;49.43;24.30;;;;;;;4.60;87.91;94435.22;5054816;28;20243;-68
2022/05/10 04:10:07;;;;;;;45.13;21.67;;;;;;;4.68;87.92;94432.53;5040442;28;20200;-68
2022/05/10 04:12:52;;;;;;;42.97;22.63;;;;;;;4.70;87.96;94427.91;5037601;28;20685;-67
2022/05/10 04:15:36;;;;;;;43.50;21.63;;;;;;;4.77;87.85;94437.59;5037685;28;20193;-67
2022/05/10 04:18:21;;;;;;;38.87;21.07;;;;;;;4.88;88.48;94434.53;5054728;28;20196;-68
2022/05/10 04:21:05;;;;;;;48.03;22.17;;;;;;;4.96;87.97;94437.38;5038000;28;20257;-67
2022/05/10 04:23:49;;;;;;;49.67;24.83;;;;;;;4.98;87.94;94432.78;5066031;28;20236;-67
2022/05/10 04:26:37;;;;;;;43.90;21.87;;;;;;;5.04;87.88;94438.19;5070154;28;20224;-67
2022/05/10 04:29:22;;;;;;;49.40;23.03;;;;;;;5.13;88.13;94440.47;5052902;28;20868;-67
2022/05/10 04:32:07;;;;;;;58.43;24.93;;;;;;;5.20;87.95;94443.31;5034333;28;20197;-67
2022/05/10 04:34:52;;;;;;;48.73;23.73;;;;;;;5.41;88.40;94448.09;5051966;28;20274;-67
2022/05/10 04:37:36;;;;;;;39.07;21.93;;;;;;;5.55;88.49;94438.38;5053340;28;20217;-67
2022/05/10 04:43:23;;;;;;;35.93;20.90;;;;;;;5.79;88.40;94437.97;5069354;28;20696;-67
2022/05/10 04:46:08;;;;;;;44.60;22.53;;;;;;;5.93;88.49;94436.56;5083029;28;20251;-68
2022/05/10 04:48:53;;;;;;;53.27;25.43;;;;;;;6.11;88.55;94439.63;5067751;28;20197;-67
2022/05/10 04:51:39;;;;;;;45.17;24.67;;;;;;;6.23;88.16;94441.53;5054304;28;20778;-67
2022/05/10 04:54:23;;;;;;;47.63;26.17;;;;;;;6.42;88.45;94441.19;5040685;28;20693;-68
2022/05/10 04:57:07;;;;;;;49.40;24.73;;;;;;;6.53;88.30;94435.31;5044218;28;20646;-67
2022/05/10 04:59:51;;;;;;;42.03;24.13;;;;;;;6.70;88.31;94437.56;5042202;28;20197;-67
2022/05/10 05:02:36;;;;;;;52.30;25.40;;;;;;;6.82;88.16;94433.84;5058955;28;20243;-68
2022/05/10 05:05:21;;;;;;;53.77;27.40;;;;;;;7.11;88.71;94433.69;5045804;28;20736;-68
2022/05/10 05:08:06;;;;;;;56.83;27.47;;;;;;;7.25;88.43;94435.72;5043282;28;20720;-67
2022/05/10 05:10:52;;;;;;;43.37;25.63;;;;;;;7.41;88.58;94436.44;5043180;28;20184;-67
2022/05/10 05:13:36;;;;;;;44.87;25.30;;;;;;;7.55;88.01;94437.75;5057776;28;20212;-68
2022/05/10 05:16:20;;;;;;;38.67;22.00;;;;;;;7.80;88.70;94448.28;5066369;28;20240;-66
2022/05/10 05:19:06;;;;;;;32.63;19.23;;;;;;;8.03;88.25;94443.38;5064007;28;20208;-66
2022/05/10 05:21:51;;;;;;;24.07;15.13;;;;;;;8.24;88.08;94446.69;5044235;28;20296;-67
2022/05/10 05:24:35;;;;;;;26.03;16.50;;;;;;;8.50;88.12;94454.59;5049355;28;20194;-67
2022/05/10 05:27:20;;;;;;;25.97;14.47;;;;;;;8.74;88.12;94452.44;5057977;28;20201;-66
2022/05/10 05:30:04;;;;;;;25.83;16.03;;;;;;;8.93;87.84;94449.88;5068136;28;20247;-67
2022/05/10 05:32:49;;;;;;;27.17;17.77;;;;;;;8.96;87.50;94448.72;5042562;28;20617;-67
2022/05/10 05:35:33;;;;;;;32.17;20.23;;;;;;;9.06;87.52;94449.63;5046202;28;20212;-66
2022/05/10 05:38:19;;;;;;;23.70;15.63;;;;;;;9.17;86.69;94446.38;5057777;28;20633;-66
2022/05/10 05:41:04;;;;;;;24.47;17.50;;;;;;;9.46;86.67;94454.34;5057050;28;20196;-68
2022/05/10 05:43:48;;;;;;;25.83;16.77;;;;;;;9.68;86.66;94450.59;5053698;28;20208;-67
2022/05/10 05:46:33;;;;;;;28.13;19.03;;;;;;;9.84;85.67;94451.19;5048605;28;20178;-67
2022/05/10 05:49:17;;;;;;;20.90;16.27;;;;;;;10.07;84.66;94458.03;5037355;28;20725;-67
2022/05/10 05:52:03;;;;;;;24.60;14.90;;;;;;;10.22;84.22;94462.03;5040348;28;20635;-67
2022/05/10 05:54:49;;;;;;;20.83;16.23;;;;;;;10.40;83.76;94455.09;5038611;28;20225;-67
2022/05/10 05:57:33;;;;;;;21.50;14.80;;;;;;;10.59;84.18;94446.81;5046305;28;20196;-67
2022/05/10 06:00:23;;;;;;;20.93;15.17;;;;;;;10.87;82.33;94451.09;5055668;28;20189;-67
2022/05/10 06:03:07;;;;;;;18.70;14.30;;;;;;;10.94;81.17;94444.66;5045008;28;20203;-66
2022/05/10 06:05:51;;;;;;;23.37;15.93;;;;;;;11.04;81.59;94453.13;5056481;28;20315;-67
2022/05/10 06:08:36;;;;;;;17.10;13.73;;;;;;;11.11;81.96;94458.59;5039475;28;20216;-67
2022/05/10 06:11:20;;;;;;;17.63;13.60;;;;;;;11.32;82.47;94452.50;5049305;28;20279;-67
2022/05/10 06:14:04;;;;;;;20.03;15.10;;;;;;;11.42;82.01;94456.09;5055049;28;20347;-67
2022/05/10 06:16:48;;;;;;;16.30;13.07;;;;;;;11.54;81.59;94459.81;5061740;28;20725;-67
2022/05/10 06:19:36;;;;;;;13.17;10.93;;;;;;;11.75;81.35;94459.31;5042741;28;20678;-67
2022/05/10 06:22:20;;;;;;;10.97;9.60;;;;;;;11.88;79.40;94460.97;5041806;28;20583;-67
2022/05/10 06:25:05;;;;;;;11.40;10.23;;;;;;;11.84;78.54;94453.00;5039117;28;20204;-67
2022/05/10 06:27:51;;;;;;;9.30;7.63;;;;;;;12.05;77.49;94460.84;5056092;28;20197;-66
2022/05/10 06:30:35;;;;;;;9.53;6.43;;;;;;;12.44;73.49;94462.34;5054331;28;20208;-67
2022/05/10 06:33:20;;;;;;;6.03;5.43;;;;;;;12.45;74.82;94463.84;5054755;28;20203;-67
2022/05/10 06:36:04;;;;;;;6.17;4.87;;;;;;;12.50;73.37;94462.06;5056187;28;20184;-67
2022/05/10 06:38:48;;;;;;;5.23;4.70;;;;;;;12.64;74.91;94456.72;5070316;28;20323;-67
2022/05/10 06:41:33;;;;;;;7.43;4.30;;;;;;;12.88;73.41;94464.09;5067514;28;20554;-67
2022/05/10 06:44:17;;;;;;;6.33;4.87;;;;;;;12.88;73.63;94470.47;5051968;28;20190;-66
2022/05/10 06:47:01;;;;;;;8.70;4.40;;;;;;;13.17;71.65;94467.59;5049313;28;20200;-67
2022/05/10 06:49:45;;;;;;;4.17;3.77;;;;;;;13.20;71.14;94460.78;5023413;28;20280;-67
2022/05/10 06:52:33;;;;;;;4.67;3.40;;;;;;;13.35;68.96;94466.06;5024845;28;20637;-66
2022/05/10 06:55:18;;;;;;;6.63;3.70;;;;;;;13.54;67.18;94459.63;5036951;28;20212;-67
2022/05/10 06:58:03;;;;;;;3.63;3.33;;;;;;;13.62;68.59;94465.81;5035858;28;20628;-68
2022/05/10 07:00:48;;;;;;;7.23;3.37;;;;;;;13.77;67.90;94464.69;5049754;28;20189;-67
2022/05/10 07:03:34;;;;;;;4.60;3.20;;;;;;;13.90;67.50;94461.34;5049221;28;20295;-67
2022/05/10 07:06:23;;;;;;;3.70;3.40;;;;;;;14.05;67.80;94460.25;5026287;28;20197;-67
2022/05/10 07:09:07;;;;;;;5.63;3.30;;;;;;;14.06;67.27;94462.47;5022632;28;20190;-67
2022/05/10 07:11:51;;;;;;;4.73;3.57;;;;;;;14.52;66.51;94464.06;5066595;28;20763;-68
2022/05/10 07:14:35;;;;;;;3.33;3.00;;;;;;;14.74;63.57;94459.88;5056003;28;20717;-68
2022/05/10 07:17:19;;;;;;;5.70;3.10;;;;;;;15.18;62.81;94466.88;5030088;28;20702;-67
2022/05/10 07:20:09;;;;;;;4.77;3.03;;;;;;;15.40;63.48;94451.31;5045093;28;20207;-67
2022/05/10 07:22:53;;;;;;;3.20;3.00;;;;;;;15.85;60.98;94457.63;5029513;28;20232;-69
2022/05/10 07:25:38;;;;;;;5.67;3.23;;;;;;;15.04;62.72;94458.25;5065883;28;20189;-69
2022/05/10 07:28:22;;;;;;;3.70;3.00;;;;;;;15.74;61.49;94452.72;5037394;28;20275;-69
2022/05/10 07:31:07;;;;;;;3.50;2.90;;;;;;;15.69;61.35;94454.56;5055099;28;20278;-69
2022/05/10 07:33:52;;;;;;;5.38;2.78;;;;;;;15.77;60.71;94460.72;5050659;28;20305;-69
2022/05/10 07:36:37;;;;;;;5.45;3.08;;;;;;;15.71;61.66;94457.50;5063265;28;20185;-68
2022/05/10 07:39:23;;;;;;;2.38;2.22;;;;;;;16.93;58.29;94456.16;5052433;28;20196;-69
2022/05/10 07:42:07;;;;;;;3.70;2.85;;;;;;;16.61;59.42;94448.66;5053570;28;20209;-68
2022/05/10 07:44:53;;;;;;;3.22;2.78;;;;;;;17.88;56.72;94452.84;5034827;28;20795;-68
2022/05/10 07:47:44;;;;;;;4.35;2.83;;;;;;;19.04;53.22;94444.50;5021617;28;20177;-68
2022/05/10 07:50:28;;;;;;;4.38;2.92;;;;;;;18.54;54.39;94447.03;5020671;28;20269;-69
2022/05/10 07:53:14;;;;;;;2.90;2.60;;;;;;;18.84;53.62;94450.66;5039439;28;20181;-68
2022/05/10 07:55:59;;;;;;;6.30;2.70;;;;;;;18.86;53.73;94447.94;5021412;28;20213;-69
2022/05/10 07:58:44;;;;;;;2.33;2.10;;;;;;;19.79;51.78;94452.34;5079264;28;20693;-68
2022/05/10 08:01:28;;;;;;;4.13;2.33;;;;;;;21.26;47.28;94448.66;5034490;28;20688;-68
2022/05/10 08:04:12;;;;;;;3.85;2.30;;;;;;;21.03;47.09;94449.13;5077839;28;20181;-69
2022/05/10 08:06:56;;;;;;;4.38;2.20;;;;;;;20.25;49.94;94444.41;5055271;28;20185;-68
2022/05/10 08:09:43;;;;;;;5.82;2.20;;;;;;;22.23;44.68;94439.50;5041032;28;20196;-67
2022/05/10 08:12:28;;;;;;;3.13;2.17;;;;;;;22.33;44.16;94439.88;5056137;28;20196;-68
2022/05/10 08:15:15;;;;;;;4.40;2.38;;;;;;;22.15;44.90;94442.81;5047887;28;20263;-68
2022/05/10 08:18:00;;;;;;;2.88;2.47;;;;;;;20.06;49.42;94448.56;5063075;28;20248;-68
2022/05/10 08:20:45;;;;;;;4.90;2.40;;;;;;;21.50;46.59;94448.88;5039065;28;20555;-68
2022/05/10 08:23:32;;;;;;;6.97;2.67;;;;;;;21.50;44.78;94442.44;5058291;28;20306;-68
2022/05/10 08:26:17;;;;;;;7.07;2.17;;;;;;;21.48;47.15;94440.25;5039982;28;20567;-68
2022/05/10 08:29:03;;;;;;;2.78;2.30;;;;;;;21.57;45.95;94438.44;5034639;28;20221;-68
2022/05/10 08:31:47;;;;;;;2.40;2.20;;;;;;;21.76;43.98;94434.91;5019505;28;20189;-68
2022/05/10 08:34:33;;;;;;;4.47;2.60;;;;;;;21.38;46.64;94451.25;5033149;28;20236;-68
2022/05/10 08:37:16;;;;;;;4.70;2.50;;;;;;;22.75;43.18;94440.63;5042220;28;20550;-68
2022/05/10 08:40:01;;;;;;;2.60;2.40;;;;;;;22.54;43.69;94439.91;5027419;28;20193;-67
2022/05/10 08:42:51;;;;;;;5.93;2.50;;;;;;;22.56;44.18;94436.41;5052860;28;20638;-68
2022/05/10 08:45:41;;;;;;;4.32;2.33;;;;;;;22.30;44.41;94438.31;5032199;28;20603;-67
2022/05/10 08:48:30;;;;;;;3.33;2.33;;;;;;;21.37;46.42;94436.28;5055114;28;20204;-68
2022/05/10 08:51:15;;;;;;;2.33;2.13;;;;;;;21.87;45.13;94428.19;5054123;28;20181;-70
2022/05/10 08:53:59;;;;;;;4.60;2.30;;;;;;;22.65;43.44;94443.84;5052928;28;20267;-69
2022/05/10 08:56:51;;;;;;;3.17;2.60;;;;;;;21.66;46.27;94438.09;5040067;28;20735;-69
2022/05/10 09:00:27;;;;;;;3.40;2.80;;;;;;;22.02;45.27;94433.06;5053653;28;20685;-70
2022/05/10 09:03:45;;;;;;;5.03;2.80;;;;;;;21.95;45.31;94434.22;5040190;28;20470;-70
2022/05/10 09:06:53;;;;;;;3.00;2.70;;;;;;;23.02;42.58;94442.25;5042361;28;20196;-68
2022/05/10 09:09:52;;;;;;;5.53;2.92;;;;;;;22.38;43.44;94438.63;5045440;28;20193;-68
2022/05/10 09:12:49;;;;;;;4.35;2.53;;;;;;;23.11;43.23;94438.25;5051150;28;20285;-68
2022/05/10 09:15:40;;;;;;;5.15;2.92;;;;;;;23.74;42.01;94436.00;5053139;28;20229;-68
2022/05/10 09:18:27;;;;;;;5.85;2.80;;;;;;;23.03;42.37;94435.13;5053633;28;20661;-68
2022/05/10 09:21:21;;;;;;;4.43;2.70;;;;;;;23.79;40.67;94436.84;5076690;28;20334;-67
2022/05/10 09:24:28;;;;;;;3.58;2.50;;;;;;;24.14;40.56;94442.16;5053723;28;20275;-68
2022/05/10 09:27:14;;;;;;;4.07;2.75;;;;;;;23.48;41.41;94438.06;5038067;28;20664;-68
2022/05/10 09:30:00;;;;;;;2.97;2.40;;;;;;;23.78;40.51;94441.09;5049701;28;20319;-68
2022/05/10 09:35:51;;;;;;;5.10;2.92;;;;;;;25.46;36.80;94442.06;5052744;28;20212;-69
2022/05/10 09:38:47;;;;;;;2.75;2.28;;;;;;;25.02;38.76;94442.44;5039665;28;20193;-69
2022/05/10 09:41:40;;;;;;;3.65;2.30;;;;;;;25.57;36.88;94435.91;5039928;28;20243;-69
2022/05/10 09:44:29;;;;;;;7.70;2.67;;;;;;;25.61;36.85;94438.16;5040220;28;20235;-68
2022/05/10 09:47:18;;;;;;;4.80;2.65;;;;;;;25.58;36.20;94436.66;5071436;28;20196;-68
2022/05/10 09:50:14;;;;;;;11.55;5.15;;;;;;;25.93;37.54;94435.28;5050386;28;20281;-68
2022/05/10 09:53:20;;;;;;;6.85;2.35;;;;;;;27.28;34.01;94435.03;5048861;28;20294;-69
2022/05/10 09:56:24;;;;;;;2.75;2.55;;;;;;;27.16;34.30;94434.09;5043168;28;20200;-68
2022/05/10 09:59:15;;;;;;;2.70;2.30;;;;;;;27.23;32.60;94427.78;5056070;28;20235;-68
2022/05/10 10:02:01;;;;;;;3.53;2.22;;;;;;;28.14;31.73;94428.47;5056865;28;20662;-69
2022/05/10 10:04:48;;;;;;;2.35;2.15;;;;;;;29.49;28.42;94434.25;5046714;28;20200;-68
2022/05/10 10:07:33;;;;;;;5.07;2.63;;;;;;;28.60;30.69;94430.44;5042201;28;20263;-69
2022/05/10 10:10:37;;;;;;;3.35;2.38;;;;;;;26.79;32.34;94424.09;5071396;28;20263;-68
2022/05/10 10:13:32;;;;;;;2.50;2.25;;;;;;;28.30;31.05;94431.53;5055419;28;20269;-68
2022/05/10 10:16:50;;;;;;;2.15;1.88;;;;;;;27.31;28.65;94427.19;5083956;28;20209;-68
2022/05/10 10:19:45;;;;;;;3.65;2.20;;;;;;;27.85;30.22;94429.47;5043367;28;20252;-69
2022/05/10 10:22:36;;;;;;;2.47;2.10;;;;;;;27.61;31.34;94424.81;5042282;28;20212;-68
2022/05/10 10:25:41;;;;;;;3.58;2.13;;;;;;;28.04;29.56;94419.66;5035535;28;20313;-68
2022/05/10 10:28:31;;;;;;;4.35;1.95;;;;;;;27.83;29.82;94426.56;5067897;28;20661;-68
2022/05/10 10:31:22;;;;;;;2.65;2.10;;;;;;;29.15;28.02;94415.16;5035715;28;20305;-69
2022/05/10 10:34:20;;;;;;;3.78;2.30;;;;;;;28.43;28.52;94415.13;5064485;28;20222;-69
2022/05/10 10:37:19;;;;;;;5.47;2.30;;;;;;;28.90;28.88;94414.22;5022455;28;20202;-68
2022/05/10 10:40:32;;;;;;;3.80;2.20;;;;;;;29.89;28.53;94417.19;5066279;28;20227;-68
2022/05/10 10:43:43;;;;;;;2.95;2.05;;;;;;;28.21;28.73;94418.44;5036623;28;20213;-68
2022/05/10 10:46:49;;;;;;;2.65;2.05;;;;;;;28.42;28.87;94407.91;5043841;28;20193;-68
2022/05/10 10:49:47;;;;;;;2.95;2.13;;;;;;;28.58;26.64;94414.56;5039176;28;20303;-68
2022/05/10 10:52:32;;;;;;;3.85;1.80;;;;;;;30.26;25.85;94409.47;5041053;28;20619;-68
2022/05/10 10:55:18;;;;;;;3.35;2.08;;;;;;;30.08;24.08;94415.91;5039756;28;20704;-67
2022/05/10 10:58:52;;;;;;;2.88;1.70;;;;;;;29.48;26.00;94409.69;5067468;28;20193;-68
2022/05/10 11:02:05;;;;;;;2.38;1.77;;;;;;;31.34;21.91;94419.22;5067748;28;20208;-68
2022/05/10 11:05:21;;;;;;;6.07;1.80;;;;;;;31.17;22.93;94415.56;5047029;28;20225;-68
2022/05/10 11:08:17;;;;;;;4.28;1.30;;;;;;;31.51;19.48;94406.19;5041618;28;20220;-67
2022/05/10 11:11:21;;;;;;;2.47;1.30;;;;;;;31.20;19.85;94416.31;5053177;28;20181;-67
2022/05/10 11:14:21;;;;;;;1.55;1.00;;;;;;;33.33;19.45;94405.56;5037622;28;20208;-68
2022/05/10 11:17:20;;;;;;;1.25;1.00;;;;;;;32.19;18.73;94398.88;5039546;28;20234;-67
2022/05/10 11:20:20;;;;;;;2.80;1.08;;;;;;;34.90;16.62;94398.88;5041854;28;20673;-68
2022/05/10 11:23:10;;;;;;;3.25;1.00;;;;;;;32.26;19.48;94380.00;5056130;28;20293;-68
2022/05/10 11:25:58;;;;;;;2.67;1.42;;;;;;;33.55;19.44;94389.41;5041437;28;20642;-67
2022/05/10 11:29:10;;;;;;;1.58;1.25;;;;;;;33.24;19.72;94392.56;5040109;28;20200;-68
2022/05/10 11:32:13;;;;;;;1.77;1.48;;;;;;;33.15;19.25;94382.41;5050712;28;20221;-68
2022/05/10 11:35:07;;;;;;;1.33;1.23;;;;;;;33.20;20.11;94378.06;5039284;28;20209;-67
2022/05/10 11:38:08;;;;;;;1.67;1.42;;;;;;;33.37;20.15;94377.94;5023013;28;20240;-66
2022/05/10 11:41:02;;;;;;;5.57;1.40;;;;;;;33.08;21.17;94375.22;5083686;28;20250;-67
2022/05/10 11:44:14;;;;;;;2.28;1.30;;;;;;;32.88;19.97;94381.16;5041222;28;20243;-68
2022/05/10 11:47:14;;;;;;;1.83;1.17;;;;;;;33.11;19.63;94373.75;5053510;28;20542;-68
2022/05/10 11:50:20;;;;;;;2.17;1.55;;;;;;;34.93;17.97;94370.47;5053406;28;20303;-68
2022/05/10 11:53:54;;;;;;;2.75;1.85;;;;;;;35.08;17.10;94374.59;5041262;28;20248;-68
2022/05/10 11:56:41;;;;;;;2.28;1.17;;;;;;;34.08;17.80;94367.09;5055327;28;20225;-68
2022/05/10 11:59:32;;;;;;;1.63;1.38;;;;;;;35.73;16.90;94371.41;5040736;28;20228;-68
2022/05/10 12:02:46;;;;;;;1.45;1.35;;;;;;;36.05;16.77;94362.06;5050048;28;20219;-69
2022/05/10 12:05:33;;;;;;;3.75;1.70;;;;;;;34.60;19.01;94359.22;5041503;28;20193;-68
2022/05/10 12:08:23;;;;;;;2.80;1.40;;;;;;;36.55;17.68;94356.00;5054752;28;20224;-69
2022/05/10 12:11:49;;;;;;;3.95;1.77;;;;;;;35.57;18.08;94340.31;5044342;28;20285;-68
2022/05/10 12:21:24;;;;;;;3.55;1.77;;;;;;;35.81;18.83;94342.09;5044285;28;20209;-68
2022/05/10 12:24:25;;;;;;;2.50;1.50;;;;;;;35.43;18.23;94328.88;5063754;28;20593;-68
2022/05/10 12:27:11;;;;;;;3.33;1.80;;;;;;;33.56;20.31;94324.00;5024581;28;20278;-67
2022/05/10 12:29:59;;;;;;;2.08;1.58;;;;;;;33.52;20.22;94315.31;5054027;28;20685;-68
2022/05/10 12:32:45;;;;;;;2.58;1.20;;;;;;;35.09;18.45;94323.59;5067966;28;20192;-68
2022/05/10 12:35:30;;;;;;;3.58;1.55;;;;;;;35.13;17.66;94318.41;5039536;28;20259;-67
2022/05/10 12:38:41;;;;;;;2.20;1.30;;;;;;;36.30;18.16;94312.69;5036905;28;20191;-68
2022/05/10 12:41:44;;;;;;;3.55;1.52;;;;;;;37.21;17.19;94322.41;5063989;28;20614;-68
2022/05/10 12:44:44;;;;;;;3.05;1.58;;;;;;;37.26;16.43;94312.06;5037533;28;20213;-68
2022/05/10 12:47:47;;;;;;;1.42;1.33;;;;;;;36.73;16.21;94308.88;5037037;28;20285;-68
2022/05/10 12:51:09;;;;;;;1.35;1.20;;;;;;;38.72;15.87;94308.13;5053170;28;20203;-68
2022/05/10 12:53:59;;;;;;;1.98;1.38;;;;;;;38.34;15.14;94307.00;5066619;28;20200;-68
2022/05/10 12:57:09;;;;;;;6.13;1.50;;;;;;;38.88;14.93;94306.19;5036814;28;20197;-69
2022/05/10 13:03:12;;;;;;;3.88;1.58;;;;;;;35.65;16.94;94304.44;4927960;22;20235;-65
2022/05/10 13:06:28;;;;;;;1.45;1.35;;;;;;;38.10;15.14;94289.44;4973958;28;20210;-65
2022/05/10 13:44:40;;;;;;;3.85;2.00;;;;;;;38.24;15.43;94253.91;4987240;28;20235;-64
2022/05/10 13:47:30;;;;;;;3.85;1.70;;;;;;;37.13;16.71;94252.47;4992890;28;20230;-65
2022/05/10 13:50:22;;;;;;;4.43;1.85;;;;;;;37.85;15.65;94243.25;4993275;28;20334;-65
2022/05/10 13:53:11;;;;;;;1.63;1.52;;;;;;;35.73;17.73;94240.19;4991002;28;20215;-66
2022/05/10 13:55:56;;;;;;;1.75;1.60;;;;;;;38.09;15.36;94244.81;4976922;28;20624;-65
2022/05/10 13:58:45;;;;;;;4.18;1.27;;;;;;;37.85;14.93;94243.25;4976350;28;20293;-66
2022/05/10 14:01:35;;;;;;;2.85;1.67;;;;;;;37.38;15.50;94235.00;5007281;28;20199;-65
2022/05/10 14:04:20;;;;;;;3.50;1.90;;;;;;;36.40;16.91;94233.69;4975938;28;20736;-65
2022/05/10 14:07:07;;;;;;;2.80;1.70;;;;;;;37.79;16.03;94234.66;4962558;28;20299;-65
2022/05/10 14:09:53;;;;;;;2.60;1.33;;;;;;;37.87;16.52;94234.44;4996607;28;20223;-65
2022/05/10 14:12:47;;;;;;;1.80;1.23;;;;;;;35.74;17.58;94229.25;5010621;28;20691;-66
2022/05/10 14:15:39;;;;;;;2.90;1.85;;;;;;;37.78;15.45;94230.28;5009854;28;20254;-65
2022/05/10 14:18:35;;;;;;;2.13;1.52;;;;;;;36.75;17.45;94215.38;5010414;28;20323;-66